sensor_id;sensor_type;location;lat;lon;timestamp;P1;durP1;ratioP1;P2;durP2;ratioP2
22184;SDS011;11258;52.516;13.318;2024-03-07T00:02:20;68.70;;;24.00;;
22184;SDS011;11258;52.516;13.318;2024-03-07T00:04:46;66.27;;;24.50;;
22184;SDS011;11258;52.516;13.318;2024-03-07T00:07:12;75.07;;;25.50;;
22184;SDS011;11258;52.516;13.318;2024-03-07T00:09:39;63.20;;;23.20;;
22184;SDS011;11258;52.516;13.318;2024-03-07T00:12:05;67.03;;;24.00;;
22184;SDS011;11258;52.516;13.318;2024-03-07T00:14:32;60.13;;;24.30;;
22184;SDS011;11258;52.516;13.318;2024-03-07T00:17:00;63.97;;;24.57;;
22184;SDS011;11258;52.516;13.318;2024-03-07T00:19:26;61.23;;;21.60;;
22184;SDS011;11258;52.516;13.318;2024-03-07T00:21:53;66.30;;;22.97;;
22184;SDS011;11258;52.516;13.318;2024-03-07T00:24:22;67.57;;;23.30;;
22184;SDS011;11258;52.516;13.318;2024-03-07T00:26:48;72.37;;;25.07;;
22184;SDS011;11258;52.516;13.318;2024-03-07T00:29:16;78.37;;;25.20;;
22184;SDS011;11258;52.516;13.318;2024-03-07T00:31:45;70.37;;;23.80;;
22184;SDS011;11258;52.516;13.318;2024-03-07T00:34:15;62.20;;;22.37;;
22184;SDS011;11258;52.516;13.318;2024-03-07T00:36:44;60.97;;;23.07;;
22184;SDS011;11258;52.516;13.318;2024-03-07T00:39:11;61.47;;;23.00;;
22184;SDS011;11258;52.516;13.318;2024-03-07T00:41:40;68.87;;;22.87;;
22184;SDS011;11258;52.516;13.318;2024-03-07T00:44:06;69.90;;;24.23;;
22184;SDS011;11258;52.516;13.318;2024-03-07T00:46:34;61.73;;;22.03;;
22184;SDS011;11258;52.516;13.318;2024-03-07T00:49:01;64.83;;;22.40;;
22184;SDS011;11258;52.516;13.318;2024-03-07T00:51:27;54.37;;;20.87;;
22184;SDS011;11258;52.516;13.318;2024-03-07T00:53:53;60.63;;;23.10;;
22184;SDS011;11258;52.516;13.318;2024-03-07T00:56:19;59.60;;;22.57;;
22184;SDS011;11258;52.516;13.318;2024-03-07T00:58:47;55.97;;;22.20;;
22184;SDS011;11258;52.516;13.318;2024-03-07T01:01:13;68.93;;;22.83;;
22184;SDS011;11258;52.516;13.318;2024-03-07T01:03:40;61.87;;;23.80;;
22184;SDS011;11258;52.516;13.318;2024-03-07T01:06:06;67.90;;;23.33;;
22184;SDS011;11258;52.516;13.318;2024-03-07T01:08:34;57.07;;;23.13;;
22184;SDS011;11258;52.516;13.318;2024-03-07T01:11:01;64.53;;;24.47;;
22184;SDS011;11258;52.516;13.318;2024-03-07T01:13:34;68.00;;;22.10;;
22184;SDS011;11258;52.516;13.318;2024-03-07T01:16:00;61.13;;;22.33;;
22184;SDS011;11258;52.516;13.318;2024-03-07T01:18:26;64.27;;;22.73;;
22184;SDS011;11258;52.516;13.318;2024-03-07T01:20:52;55.57;;;21.30;;
22184;SDS011;11258;52.516;13.318;2024-03-07T01:23:19;64.23;;;23.00;;
22184;SDS011;11258;52.516;13.318;2024-03-07T01:25:45;71.23;;;23.80;;
22184;SDS011;11258;52.516;13.318;2024-03-07T01:28:11;66.83;;;23.73;;
22184;SDS011;11258;52.516;13.318;2024-03-07T01:30:39;65.97;;;23.40;;
22184;SDS011;11258;52.516;13.318;2024-03-07T01:33:05;67.47;;;21.63;;
22184;SDS011;11258;52.516;13.318;2024-03-07T01:35:31;52.50;;;23.07;;
22184;SDS011;11258;52.516;13.318;2024-03-07T01:37:57;64.27;;;21.90;;
22184;SDS011;11258;52.516;13.318;2024-03-07T01:40:23;63.40;;;20.97;;
22184;SDS011;11258;52.516;13.318;2024-03-07T01:42:49;64.50;;;24.40;;
22184;SDS011;11258;52.516;13.318;2024-03-07T01:45:15;53.67;;;21.93;;
22184;SDS011;11258;52.516;13.318;2024-03-07T01:47:43;59.97;;;22.53;;
22184;SDS011;11258;52.516;13.318;2024-03-07T01:50:09;55.50;;;22.57;;
22184;SDS011;11258;52.516;13.318;2024-03-07T01:52:36;54.57;;;19.73;;
22184;SDS011;11258;52.516;13.318;2024-03-07T01:55:04;61.83;;;22.07;;
22184;SDS011;11258;52.516;13.318;2024-03-07T01:57:30;57.13;;;19.70;;
22184;SDS011;11258;52.516;13.318;2024-03-07T01:59:57;56.00;;;20.40;;
22184;SDS011;11258;52.516;13.318;2024-03-07T02:02:23;65.93;;;22.40;;
22184;SDS011;11258;52.516;13.318;2024-03-07T02:04:49;56.43;;;22.60;;
22184;SDS011;11258;52.516;13.318;2024-03-07T02:07:15;51.47;;;21.00;;
22184;SDS011;11258;52.516;13.318;2024-03-07T02:09:41;55.13;;;21.77;;
22184;SDS011;11258;52.516;13.318;2024-03-07T02:12:07;65.47;;;21.73;;
22184;SDS011;11258;52.516;13.318;2024-03-07T02:14:34;58.43;;;21.97;;
22184;SDS011;11258;52.516;13.318;2024-03-07T02:17:00;52.03;;;21.57;;
22184;SDS011;11258;52.516;13.318;2024-03-07T02:19:26;61.37;;;21.93;;
22184;SDS011;11258;52.516;13.318;2024-03-07T02:21:52;57.37;;;22.43;;
22184;SDS011;11258;52.516;13.318;2024-03-07T02:24:18;51.73;;;21.43;;
22184;SDS011;11258;52.516;13.318;2024-03-07T02:26:44;59.23;;;23.60;;
22184;SDS011;11258;52.516;13.318;2024-03-07T02:29:10;55.67;;;22.40;;
22184;SDS011;11258;52.516;13.318;2024-03-07T02:31:36;59.47;;;22.77;;
22184;SDS011;11258;52.516;13.318;2024-03-07T02:34:02;58.53;;;21.43;;
22184;SDS011;11258;52.516;13.318;2024-03-07T02:36:29;58.40;;;23.07;;
22184;SDS011;11258;52.516;13.318;2024-03-07T02:38:55;61.43;;;23.10;;
22184;SDS011;11258;52.516;13.318;2024-03-07T02:41:21;63.40;;;21.77;;
22184;SDS011;11258;52.516;13.318;2024-03-07T02:43:47;64.67;;;24.33;;
22184;SDS011;11258;52.516;13.318;2024-03-07T02:46:13;67.00;;;23.53;;
22184;SDS011;11258;52.516;13.318;2024-03-07T02:48:39;64.87;;;22.57;;
22184;SDS011;11258;52.516;13.318;2024-03-07T02:51:06;61.73;;;23.23;;
22184;SDS011;11258;52.516;13.318;2024-03-07T02:53:32;68.27;;;25.73;;
22184;SDS011;11258;52.516;13.318;2024-03-07T02:55:58;66.23;;;23.00;;
22184;SDS011;11258;52.516;13.318;2024-03-07T02:58:24;62.70;;;23.10;;
22184;SDS011;11258;52.516;13.318;2024-03-07T03:00:58;60.30;;;22.90;;
22184;SDS011;11258;52.516;13.318;2024-03-07T03:03:25;54.77;;;22.17;;
22184;SDS011;11258;52.516;13.318;2024-03-07T03:05:51;58.67;;;23.83;;
22184;SDS011;11258;52.516;13.318;2024-03-07T03:08:17;61.60;;;22.33;;
22184;SDS011;11258;52.516;13.318;2024-03-07T03:10:43;68.47;;;22.83;;
22184;SDS011;11258;52.516;13.318;2024-03-07T03:13:09;58.80;;;22.73;;
22184;SDS011;11258;52.516;13.318;2024-03-07T03:15:35;63.77;;;24.90;;
22184;SDS011;11258;52.516;13.318;2024-03-07T03:18:04;62.97;;;23.40;;
22184;SDS011;11258;52.516;13.318;2024-03-07T03:20:31;68.47;;;24.53;;
22184;SDS011;11258;52.516;13.318;2024-03-07T03:23:04;69.60;;;23.53;;
22184;SDS011;11258;52.516;13.318;2024-03-07T03:25:38;61.10;;;24.00;;
22184;SDS011;11258;52.516;13.318;2024-03-07T03:28:07;59.13;;;24.37;;
22184;SDS011;11258;52.516;13.318;2024-03-07T03:30:37;68.23;;;23.83;;
22184;SDS011;11258;52.516;13.318;2024-03-07T03:33:04;63.17;;;23.00;;
22184;SDS011;11258;52.516;13.318;2024-03-07T03:35:30;58.40;;;23.13;;
22184;SDS011;11258;52.516;13.318;2024-03-07T03:37:56;60.43;;;23.77;;
22184;SDS011;11258;52.516;13.318;2024-03-07T03:40:22;64.87;;;25.37;;
22184;SDS011;11258;52.516;13.318;2024-03-07T03:42:49;59.53;;;23.60;;
22184;SDS011;11258;52.516;13.318;2024-03-07T03:45:15;63.83;;;23.33;;
22184;SDS011;11258;52.516;13.318;2024-03-07T03:47:41;68.03;;;23.13;;
22184;SDS011;11258;52.516;13.318;2024-03-07T03:50:08;66.97;;;25.30;;
22184;SDS011;11258;52.516;13.318;2024-03-07T03:52:34;63.73;;;24.97;;
22184;SDS011;11258;52.516;13.318;2024-03-07T03:55:01;64.67;;;24.20;;
22184;SDS011;11258;52.516;13.318;2024-03-07T03:57:28;57.97;;;22.03;;
22184;SDS011;11258;52.516;13.318;2024-03-07T03:59:54;63.13;;;27.30;;
22184;SDS011;11258;52.516;13.318;2024-03-07T04:02:21;56.43;;;23.67;;
22184;SDS011;11258;52.516;13.318;2024-03-07T04:04:50;58.30;;;23.47;;
22184;SDS011;11258;52.516;13.318;2024-03-07T04:07:17;59.67;;;24.67;;
22184;SDS011;11258;52.516;13.318;2024-03-07T04:09:43;56.17;;;22.00;;
22184;SDS011;11258;52.516;13.318;2024-03-07T04:12:09;60.23;;;24.13;;
22184;SDS011;11258;52.516;13.318;2024-03-07T04:14:44;52.27;;;22.10;;
22184;SDS011;11258;52.516;13.318;2024-03-07T04:17:10;50.50;;;21.67;;
22184;SDS011;11258;52.516;13.318;2024-03-07T04:19:40;56.33;;;21.67;;
22184;SDS011;11258;52.516;13.318;2024-03-07T04:22:06;64.07;;;22.30;;
22184;SDS011;11258;52.516;13.318;2024-03-07T04:24:33;51.63;;;22.67;;
22184;SDS011;11258;52.516;13.318;2024-03-07T04:27:00;53.40;;;22.23;;
22184;SDS011;11258;52.516;13.318;2024-03-07T04:29:28;51.43;;;21.53;;
22184;SDS011;11258;52.516;13.318;2024-03-07T04:31:54;52.70;;;22.53;;
22184;SDS011;11258;52.516;13.318;2024-03-07T04:34:21;60.80;;;23.33;;
22184;SDS011;11258;52.516;13.318;2024-03-07T04:36:47;54.93;;;20.37;;
22184;SDS011;11258;52.516;13.318;2024-03-07T04:39:13;50.70;;;21.93;;
22184;SDS011;11258;52.516;13.318;2024-03-07T04:42:01;48.87;;;21.37;;
22184;SDS011;11258;52.516;13.318;2024-03-07T04:44:27;51.03;;;21.43;;
22184;SDS011;11258;52.516;13.318;2024-03-07T04:46:53;50.87;;;21.47;;
22184;SDS011;11258;52.516;13.318;2024-03-07T04:49:24;57.83;;;22.43;;
22184;SDS011;11258;52.516;13.318;2024-03-07T04:51:50;48.73;;;22.73;;
22184;SDS011;11258;52.516;13.318;2024-03-07T04:54:17;50.53;;;21.77;;
22184;SDS011;11258;52.516;13.318;2024-03-07T04:56:44;51.80;;;22.30;;
22184;SDS011;11258;52.516;13.318;2024-03-07T04:59:10;54.97;;;21.50;;
22184;SDS011;11258;52.516;13.318;2024-03-07T05:01:37;43.43;;;19.63;;
22184;SDS011;11258;52.516;13.318;2024-03-07T05:04:03;53.63;;;22.33;;
22184;SDS011;11258;52.516;13.318;2024-03-07T05:06:29;45.30;;;21.67;;
22184;SDS011;11258;52.516;13.318;2024-03-07T05:08:58;43.57;;;20.93;;
22184;SDS011;11258;52.516;13.318;2024-03-07T05:11:25;42.57;;;19.63;;
22184;SDS011;11258;52.516;13.318;2024-03-07T05:13:51;49.50;;;19.63;;
22184;SDS011;11258;52.516;13.318;2024-03-07T05:16:17;46.43;;;20.90;;
22184;SDS011;11258;52.516;13.318;2024-03-07T05:18:44;39.13;;;18.97;;
22184;SDS011;11258;52.516;13.318;2024-03-07T05:21:10;46.53;;;20.83;;
22184;SDS011;11258;52.516;13.318;2024-03-07T05:23:55;45.73;;;20.73;;
22184;SDS011;11258;52.516;13.318;2024-03-07T05:26:22;52.83;;;20.70;;
22184;SDS011;11258;52.516;13.318;2024-03-07T05:28:48;44.67;;;19.93;;
22184;SDS011;11258;52.516;13.318;2024-03-07T05:31:14;45.27;;;20.93;;
22184;SDS011;11258;52.516;13.318;2024-03-07T05:33:43;47.63;;;19.63;;
22184;SDS011;11258;52.516;13.318;2024-03-07T05:36:09;43.47;;;21.47;;
22184;SDS011;11258;52.516;13.318;2024-03-07T05:38:41;46.60;;;20.57;;
22184;SDS011;11258;52.516;13.318;2024-03-07T05:41:10;45.30;;;19.67;;
22184;SDS011;11258;52.516;13.318;2024-03-07T05:43:37;42.13;;;20.10;;
22184;SDS011;11258;52.516;13.318;2024-03-07T05:46:03;45.30;;;19.93;;
22184;SDS011;11258;52.516;13.318;2024-03-07T05:48:31;38.77;;;19.67;;
22184;SDS011;11258;52.516;13.318;2024-03-07T05:50:58;43.77;;;19.90;;
22184;SDS011;11258;52.516;13.318;2024-03-07T05:53:24;41.10;;;19.07;;
22184;SDS011;11258;52.516;13.318;2024-03-07T05:55:50;45.93;;;20.93;;
22184;SDS011;11258;52.516;13.318;2024-03-07T05:58:16;40.93;;;19.93;;
22184;SDS011;11258;52.516;13.318;2024-03-07T06:00:48;46.60;;;19.83;;
22184;SDS011;11258;52.516;13.318;2024-03-07T06:03:17;35.67;;;17.83;;
22184;SDS011;11258;52.516;13.318;2024-03-07T06:05:45;39.80;;;18.70;;
22184;SDS011;11258;52.516;13.318;2024-03-07T06:08:13;49.30;;;17.63;;
22184;SDS011;11258;52.516;13.318;2024-03-07T06:10:41;42.00;;;18.07;;
22184;SDS011;11258;52.516;13.318;2024-03-07T06:13:07;39.43;;;18.47;;
22184;SDS011;11258;52.516;13.318;2024-03-07T06:15:34;45.40;;;19.03;;
22184;SDS011;11258;52.516;13.318;2024-03-07T06:18:01;39.60;;;17.63;;
22184;SDS011;11258;52.516;13.318;2024-03-07T06:20:27;34.90;;;17.77;;
22184;SDS011;11258;52.516;13.318;2024-03-07T06:22:53;40.23;;;17.90;;
22184;SDS011;11258;52.516;13.318;2024-03-07T06:25:19;32.17;;;18.00;;
22184;SDS011;11258;52.516;13.318;2024-03-07T06:27:58;34.47;;;16.83;;
22184;SDS011;11258;52.516;13.318;2024-03-07T06:30:33;36.67;;;17.67;;
22184;SDS011;11258;52.516;13.318;2024-03-07T06:32:59;32.80;;;15.20;;
22184;SDS011;11258;52.516;13.318;2024-03-07T06:35:25;32.53;;;15.53;;
22184;SDS011;11258;52.516;13.318;2024-03-07T06:37:51;29.73;;;14.47;;
22184;SDS011;11258;52.516;13.318;2024-03-07T06:40:17;26.33;;;14.23;;
22184;SDS011;11258;52.516;13.318;2024-03-07T06:42:47;27.10;;;14.47;;
22184;SDS011;11258;52.516;13.318;2024-03-07T06:45:13;26.90;;;14.03;;
22184;SDS011;11258;52.516;13.318;2024-03-07T06:47:39;25.63;;;14.20;;
22184;SDS011;11258;52.516;13.318;2024-03-07T06:50:06;25.17;;;13.33;;
22184;SDS011;11258;52.516;13.318;2024-03-07T06:52:35;28.80;;;13.73;;
22184;SDS011;11258;52.516;13.318;2024-03-07T06:55:01;32.17;;;13.77;;
22184;SDS011;11258;52.516;13.318;2024-03-07T06:57:32;29.87;;;13.10;;
22184;SDS011;11258;52.516;13.318;2024-03-07T06:59:59;26.27;;;13.07;;
22184;SDS011;11258;52.516;13.318;2024-03-07T07:02:25;22.53;;;12.10;;
22184;SDS011;11258;52.516;13.318;2024-03-07T07:04:52;21.97;;;12.63;;
22184;SDS011;11258;52.516;13.318;2024-03-07T07:07:18;26.57;;;13.13;;
22184;SDS011;11258;52.516;13.318;2024-03-07T07:09:45;27.83;;;13.00;;
22184;SDS011;11258;52.516;13.318;2024-03-07T07:12:11;24.10;;;13.67;;
22184;SDS011;11258;52.516;13.318;2024-03-07T07:14:37;22.17;;;11.93;;
22184;SDS011;11258;52.516;13.318;2024-03-07T07:17:04;23.33;;;11.93;;
22184;SDS011;11258;52.516;13.318;2024-03-07T07:19:30;26.47;;;12.10;;
22184;SDS011;11258;52.516;13.318;2024-03-07T07:21:57;24.50;;;11.43;;
22184;SDS011;11258;52.516;13.318;2024-03-07T07:24:23;19.97;;;12.20;;
22184;SDS011;11258;52.516;13.318;2024-03-07T07:26:50;24.33;;;12.40;;
22184;SDS011;11258;52.516;13.318;2024-03-07T07:29:16;25.93;;;12.30;;
22184;SDS011;11258;52.516;13.318;2024-03-07T07:31:43;22.30;;;12.27;;
22184;SDS011;11258;52.516;13.318;2024-03-07T07:34:10;20.40;;;10.97;;
22184;SDS011;11258;52.516;13.318;2024-03-07T07:36:36;23.53;;;11.97;;
22184;SDS011;11258;52.516;13.318;2024-03-07T07:39:02;23.00;;;11.90;;
22184;SDS011;11258;52.516;13.318;2024-03-07T07:41:28;22.02;;;12.27;;
22184;SDS011;11258;52.516;13.318;2024-03-07T07:43:56;23.63;;;12.23;;
22184;SDS011;11258;52.516;13.318;2024-03-07T07:46:22;20.23;;;11.55;;
22184;SDS011;11258;52.516;13.318;2024-03-07T07:48:48;21.23;;;12.18;;
22184;SDS011;11258;52.516;13.318;2024-03-07T07:51:14;18.10;;;10.32;;
22184;SDS011;11258;52.516;13.318;2024-03-07T07:53:40;20.70;;;11.75;;
22184;SDS011;11258;52.516;13.318;2024-03-07T07:56:07;19.10;;;10.45;;
22184;SDS011;11258;52.516;13.318;2024-03-07T07:58:33;20.00;;;11.20;;
22184;SDS011;11258;52.516;13.318;2024-03-07T08:00:59;21.50;;;11.63;;
22184;SDS011;11258;52.516;13.318;2024-03-07T08:03:25;19.37;;;11.43;;
22184;SDS011;11258;52.516;13.318;2024-03-07T08:05:51;18.90;;;9.90;;
22184;SDS011;11258;52.516;13.318;2024-03-07T08:08:19;20.37;;;9.53;;
22184;SDS011;11258;52.516;13.318;2024-03-07T08:10:46;22.00;;;10.43;;
22184;SDS011;11258;52.516;13.318;2024-03-07T08:13:13;20.10;;;9.40;;
22184;SDS011;11258;52.516;13.318;2024-03-07T08:15:39;22.93;;;10.90;;
22184;SDS011;11258;52.516;13.318;2024-03-07T08:18:06;20.63;;;10.73;;
22184;SDS011;11258;52.516;13.318;2024-03-07T08:20:33;20.47;;;10.03;;
22184;SDS011;11258;52.516;13.318;2024-03-07T08:22:59;20.10;;;10.93;;
22184;SDS011;11258;52.516;13.318;2024-03-07T08:25:26;18.13;;;9.77;;
22184;SDS011;11258;52.516;13.318;2024-03-07T08:27:54;17.97;;;9.40;;
22184;SDS011;11258;52.516;13.318;2024-03-07T08:30:21;20.23;;;9.67;;
22184;SDS011;11258;52.516;13.318;2024-03-07T08:32:51;18.53;;;9.37;;
22184;SDS011;11258;52.516;13.318;2024-03-07T08:35:17;19.57;;;9.20;;
22184;SDS011;11258;52.516;13.318;2024-03-07T08:37:45;19.33;;;10.00;;
22184;SDS011;11258;52.516;13.318;2024-03-07T08:40:11;14.77;;;9.33;;
22184;SDS011;11258;52.516;13.318;2024-03-07T08:42:44;16.13;;;8.90;;
22184;SDS011;11258;52.516;13.318;2024-03-07T08:45:10;16.07;;;9.53;;
22184;SDS011;11258;52.516;13.318;2024-03-07T08:47:42;21.53;;;9.97;;
22184;SDS011;11258;52.516;13.318;2024-03-07T08:50:08;20.87;;;10.53;;
22184;SDS011;11258;52.516;13.318;2024-03-07T08:52:35;16.50;;;8.57;;
22184;SDS011;11258;52.516;13.318;2024-03-07T08:55:09;15.10;;;8.37;;
22184;SDS011;11258;52.516;13.318;2024-03-07T08:57:36;15.17;;;8.97;;
22184;SDS011;11258;52.516;13.318;2024-03-07T09:00:03;17.40;;;8.70;;
22184;SDS011;11258;52.516;13.318;2024-03-07T09:02:48;13.57;;;8.00;;
22184;SDS011;11258;52.516;13.318;2024-03-07T09:05:18;13.57;;;7.13;;
22184;SDS011;11258;52.516;13.318;2024-03-07T09:07:45;16.90;;;8.93;;
22184;SDS011;11258;52.516;13.318;2024-03-07T09:10:12;18.00;;;9.27;;
22184;SDS011;11258;52.516;13.318;2024-03-07T09:12:39;18.13;;;8.07;;
22184;SDS011;11258;52.516;13.318;2024-03-07T09:15:06;19.67;;;9.27;;
22184;SDS011;11258;52.516;13.318;2024-03-07T09:17:32;14.97;;;8.33;;
22184;SDS011;11258;52.516;13.318;2024-03-07T09:19:58;19.80;;;8.70;;
22184;SDS011;11258;52.516;13.318;2024-03-07T09:22:24;14.80;;;7.90;;
22184;SDS011;11258;52.516;13.318;2024-03-07T09:24:50;15.47;;;8.70;;
22184;SDS011;11258;52.516;13.318;2024-03-07T09:27:16;15.83;;;7.70;;
22184;SDS011;11258;52.516;13.318;2024-03-07T09:29:45;12.17;;;7.67;;
22184;SDS011;11258;52.516;13.318;2024-03-07T09:32:14;12.67;;;8.23;;
22184;SDS011;11258;52.516;13.318;2024-03-07T09:34:40;31.60;;;17.57;;
22184;SDS011;11258;52.516;13.318;2024-03-07T09:37:06;31.07;;;14.90;;
22184;SDS011;11258;52.516;13.318;2024-03-07T09:39:32;14.97;;;8.13;;
22184;SDS011;11258;52.516;13.318;2024-03-07T09:42:00;13.10;;;7.57;;
22184;SDS011;11258;52.516;13.318;2024-03-07T09:44:26;17.17;;;9.13;;
22184;SDS011;11258;52.516;13.318;2024-03-07T09:46:56;12.60;;;7.40;;
22184;SDS011;11258;52.516;13.318;2024-03-07T09:49:24;18.00;;;9.80;;
22184;SDS011;11258;52.516;13.318;2024-03-07T09:51:51;18.93;;;9.63;;
22184;SDS011;11258;52.516;13.318;2024-03-07T09:54:19;16.17;;;7.43;;
22184;SDS011;11258;52.516;13.318;2024-03-07T09:56:46;17.83;;;7.50;;
22184;SDS011;11258;52.516;13.318;2024-03-07T09:59:14;16.23;;;7.77;;
22184;SDS011;11258;52.516;13.318;2024-03-07T10:01:43;11.83;;;6.87;;
22184;SDS011;11258;52.516;13.318;2024-03-07T10:04:12;14.40;;;6.90;;
22184;SDS011;11258;52.516;13.318;2024-03-07T10:06:39;13.30;;;8.03;;
22184;SDS011;11258;52.516;13.318;2024-03-07T10:09:06;14.53;;;7.60;;
22184;SDS011;11258;52.516;13.318;2024-03-07T10:11:33;13.83;;;7.20;;
22184;SDS011;11258;52.516;13.318;2024-03-07T10:14:02;12.73;;;7.60;;
22184;SDS011;11258;52.516;13.318;2024-03-07T10:16:29;14.33;;;7.63;;
22184;SDS011;11258;52.516;13.318;2024-03-07T10:18:55;14.20;;;6.87;;
22184;SDS011;11258;52.516;13.318;2024-03-07T10:21:22;12.03;;;7.03;;
22184;SDS011;11258;52.516;13.318;2024-03-07T10:23:49;13.10;;;7.67;;
22184;SDS011;11258;52.516;13.318;2024-03-07T10:26:18;12.83;;;7.43;;
22184;SDS011;11258;52.516;13.318;2024-03-07T10:28:44;12.83;;;6.47;;
22184;SDS011;11258;52.516;13.318;2024-03-07T10:31:11;12.33;;;6.60;;
22184;SDS011;11258;52.516;13.318;2024-03-07T10:33:40;12.93;;;7.23;;
22184;SDS011;11258;52.516;13.318;2024-03-07T10:36:09;10.83;;;6.30;;
22184;SDS011;11258;52.516;13.318;2024-03-07T10:38:38;13.03;;;6.90;;
22184;SDS011;11258;52.516;13.318;2024-03-07T10:41:04;11.73;;;5.97;;
22184;SDS011;11258;52.516;13.318;2024-03-07T10:43:36;13.70;;;6.83;;
22184;SDS011;11258;52.516;13.318;2024-03-07T10:46:03;13.00;;;7.80;;
22184;SDS011;11258;52.516;13.318;2024-03-07T10:48:35;16.33;;;7.27;;
22184;SDS011;11258;52.516;13.318;2024-03-07T11:01:32;11.83;;;5.53;;
22184;SDS011;11258;52.516;13.318;2024-03-07T11:03:59;14.00;;;6.63;;
22184;SDS011;11258;52.516;13.318;2024-03-07T11:06:25;16.50;;;6.87;;
22184;SDS011;11258;52.516;13.318;2024-03-07T11:08:51;13.67;;;7.20;;
22184;SDS011;11258;52.516;13.318;2024-03-07T11:11:17;15.23;;;6.50;;
22184;SDS011;11258;52.516;13.318;2024-03-07T11:13:43;13.43;;;6.73;;
22184;SDS011;11258;52.516;13.318;2024-03-07T11:16:10;11.00;;;7.17;;
22184;SDS011;11258;52.516;13.318;2024-03-07T11:18:39;11.63;;;5.70;;
22184;SDS011;11258;52.516;13.318;2024-03-07T11:21:05;13.30;;;7.20;;
22184;SDS011;11258;52.516;13.318;2024-03-07T11:23:32;12.20;;;6.93;;
22184;SDS011;11258;52.516;13.318;2024-03-07T11:28:39;13.37;;;6.87;;
22184;SDS011;11258;52.516;13.318;2024-03-07T11:31:10;11.17;;;6.73;;
22184;SDS011;11258;52.516;13.318;2024-03-07T11:33:39;15.90;;;7.10;;
22184;SDS011;11258;52.516;13.318;2024-03-07T11:36:08;13.70;;;7.33;;
22184;SDS011;11258;52.516;13.318;2024-03-07T11:38:36;12.33;;;6.93;;
22184;SDS011;11258;52.516;13.318;2024-03-07T11:41:03;11.43;;;7.27;;
22184;SDS011;11258;52.516;13.318;2024-03-07T11:43:33;17.43;;;7.33;;
22184;SDS011;11258;52.516;13.318;2024-03-07T11:46:00;12.70;;;6.83;;
22184;SDS011;11258;52.516;13.318;2024-03-07T11:48:26;10.67;;;6.60;;
22184;SDS011;11258;52.516;13.318;2024-03-07T11:50:52;15.27;;;7.17;;
22184;SDS011;11258;52.516;13.318;2024-03-07T11:53:20;13.80;;;7.17;;
22184;SDS011;11258;52.516;13.318;2024-03-07T11:55:46;15.17;;;7.60;;
22184;SDS011;11258;52.516;13.318;2024-03-07T11:58:17;11.70;;;7.23;;
22184;SDS011;11258;52.516;13.318;2024-03-07T12:00:46;12.83;;;6.87;;
22184;SDS011;11258;52.516;13.318;2024-03-07T12:03:15;11.83;;;6.40;;
22184;SDS011;11258;52.516;13.318;2024-03-07T12:05:50;13.43;;;7.13;;
22184;SDS011;11258;52.516;13.318;2024-03-07T12:08:16;12.50;;;7.13;;
22184;SDS011;11258;52.516;13.318;2024-03-07T12:10:43;12.10;;;7.10;;
22184;SDS011;11258;52.516;13.318;2024-03-07T12:13:12;18.00;;;7.20;;
22184;SDS011;11258;52.516;13.318;2024-03-07T12:15:40;11.83;;;6.53;;
22184;SDS011;11258;52.516;13.318;2024-03-07T12:18:07;13.03;;;6.73;;
22184;SDS011;11258;52.516;13.318;2024-03-07T12:20:37;15.17;;;8.67;;
22184;SDS011;11258;52.516;13.318;2024-03-07T12:23:04;14.50;;;7.93;;
22184;SDS011;11258;52.516;13.318;2024-03-07T12:25:39;14.73;;;7.63;;
22184;SDS011;11258;52.516;13.318;2024-03-07T12:28:11;14.70;;;8.03;;
22184;SDS011;11258;52.516;13.318;2024-03-07T12:30:47;12.80;;;8.37;;
22184;SDS011;11258;52.516;13.318;2024-03-07T12:33:17;14.03;;;7.60;;
22184;SDS011;11258;52.516;13.318;2024-03-07T12:35:44;13.57;;;7.93;;
22184;SDS011;11258;52.516;13.318;2024-03-07T12:38:11;15.30;;;8.17;;
22184;SDS011;11258;52.516;13.318;2024-03-07T12:40:39;12.40;;;6.97;;
22184;SDS011;11258;52.516;13.318;2024-03-07T12:43:18;13.97;;;8.23;;
22184;SDS011;11258;52.516;13.318;2024-03-07T12:45:49;14.90;;;7.50;;
22184;SDS011;11258;52.516;13.318;2024-03-07T12:48:15;13.07;;;7.30;;
22184;SDS011;11258;52.516;13.318;2024-03-07T12:50:42;9.80;;;6.47;;
22184;SDS011;11258;52.516;13.318;2024-03-07T12:53:10;12.07;;;7.70;;
22184;SDS011;11258;52.516;13.318;2024-03-07T12:55:40;15.27;;;7.67;;
22184;SDS011;11258;52.516;13.318;2024-03-07T12:58:07;12.93;;;8.07;;
22184;SDS011;11258;52.516;13.318;2024-03-07T13:00:34;15.00;;;7.77;;
22184;SDS011;11258;52.516;13.318;2024-03-07T13:03:00;15.10;;;7.90;;
22184;SDS011;11258;52.516;13.318;2024-03-07T13:05:26;15.87;;;9.07;;
22184;SDS011;11258;52.516;13.318;2024-03-07T13:07:52;14.93;;;8.30;;
22184;SDS011;11258;52.516;13.318;2024-03-07T13:10:18;16.17;;;8.60;;
22184;SDS011;11258;52.516;13.318;2024-03-07T13:12:45;16.47;;;9.30;;
22184;SDS011;11258;52.516;13.318;2024-03-07T13:15:14;17.07;;;8.47;;
22184;SDS011;11258;52.516;13.318;2024-03-07T13:17:40;13.80;;;7.43;;
22184;SDS011;11258;52.516;13.318;2024-03-07T13:20:08;27.77;;;15.23;;
22184;SDS011;11258;52.516;13.318;2024-03-07T13:22:38;14.90;;;9.00;;
22184;SDS011;11258;52.516;13.318;2024-03-07T13:25:06;15.17;;;8.93;;
22184;SDS011;11258;52.516;13.318;2024-03-07T13:27:39;14.43;;;7.80;;
22184;SDS011;11258;52.516;13.318;2024-03-07T13:30:05;14.20;;;7.73;;
22184;SDS011;11258;52.516;13.318;2024-03-07T13:32:32;16.47;;;9.07;;
22184;SDS011;11258;52.516;13.318;2024-03-07T13:34:58;17.63;;;9.83;;
22184;SDS011;11258;52.516;13.318;2024-03-07T13:37:26;16.20;;;9.00;;
22184;SDS011;11258;52.516;13.318;2024-03-07T13:39:52;16.13;;;8.30;;
22184;SDS011;11258;52.516;13.318;2024-03-07T13:42:18;16.13;;;8.17;;
22184;SDS011;11258;52.516;13.318;2024-03-07T13:44:44;15.50;;;9.03;;
22184;SDS011;11258;52.516;13.318;2024-03-07T13:47:10;14.67;;;7.70;;
22184;SDS011;11258;52.516;13.318;2024-03-07T13:49:36;12.67;;;8.40;;
22184;SDS011;11258;52.516;13.318;2024-03-07T13:52:03;17.57;;;8.67;;
22184;SDS011;11258;52.516;13.318;2024-03-07T13:54:36;16.70;;;8.00;;
22184;SDS011;11258;52.516;13.318;2024-03-07T14:27:33;17.63;;;9.37;;
22184;SDS011;11258;52.516;13.318;2024-03-07T14:32:49;16.23;;;9.17;;
22184;SDS011;11258;52.516;13.318;2024-03-07T14:40:38;13.83;;;8.83;;
22184;SDS011;11258;52.516;13.318;2024-03-07T14:43:04;16.67;;;9.63;;
22184;SDS011;11258;52.516;13.318;2024-03-07T14:45:38;17.37;;;8.77;;
22184;SDS011;11258;52.516;13.318;2024-03-07T14:48:05;15.10;;;9.23;;
22184;SDS011;11258;52.516;13.318;2024-03-07T14:50:34;18.37;;;9.60;;
22184;SDS011;11258;52.516;13.318;2024-03-07T14:53:00;14.87;;;8.57;;
22184;SDS011;11258;52.516;13.318;2024-03-07T14:55:26;19.57;;;7.73;;
22184;SDS011;11258;52.516;13.318;2024-03-07T14:57:52;14.10;;;8.57;;
22184;SDS011;11258;52.516;13.318;2024-03-07T15:00:19;14.27;;;7.93;;
22184;SDS011;11258;52.516;13.318;2024-03-07T15:02:48;16.30;;;8.03;;
22184;SDS011;11258;52.516;13.318;2024-03-07T15:05:17;15.90;;;8.13;;
22184;SDS011;11258;52.516;13.318;2024-03-07T15:07:45;15.17;;;7.47;;